createdAt,value
2022-07-28T00:01:04.521Z,99.90
2022-07-28T00:03:31.450Z,99.90
2022-07-28T00:05:58.642Z,99.90
2022-07-28T00:08:25.477Z,99.90
2022-07-28T00:10:52.313Z,99.90
2022-07-28T00:13:19.103Z,99.90
2022-07-28T00:15:45.931Z,99.90
2022-07-28T00:18:12.777Z,99.90
2022-07-28T00:20:39.635Z,99.90
2022-07-28T00:23:06.509Z,99.90
2022-07-28T00:25:38.974Z,99.90
2022-07-28T00:28:05.816Z,99.90
2022-07-28T00:30:32.652Z,99.90
2022-07-28T00:33:00.169Z,99.90
2022-07-28T00:35:31.113Z,99.90
2022-07-28T00:38:01.159Z,99.90
2022-07-28T00:40:47.752Z,99.90
2022-07-28T00:43:15.235Z,99.90
2022-07-28T00:45:42.457Z,99.90
2022-07-28T00:48:09.410Z,99.90
2022-07-28T00:50:41.317Z,99.90
2022-07-28T00:53:08.817Z,99.90
2022-07-28T00:56:02.650Z,99.90
2022-07-28T00:58:23.037Z,99.90
2022-07-28T01:00:49.901Z,99.90
2022-07-28T01:03:16.910Z,99.90
2022-07-28T01:05:46.989Z,99.90
2022-07-28T01:08:40.229Z,99.90
2022-07-28T01:11:42.902Z,99.90
2022-07-28T01:14:13.124Z,99.90
2022-07-28T01:17:03.904Z,99.90
2022-07-28T01:19:56.333Z,99.90
2022-07-28T01:22:29.676Z,99.90
2022-07-28T01:25:48.094Z,99.90
2022-07-28T01:28:59.397Z,99.90
2022-07-28T01:31:30.974Z,99.90
2022-07-28T01:34:10.818Z,99.90
2022-07-28T01:36:43.259Z,99.90
2022-07-28T01:39:11.244Z,99.90
2022-07-28T01:41:39.470Z,99.90
2022-07-28T01:44:10.408Z,99.90
2022-07-28T01:46:38.531Z,99.90
2022-07-28T01:49:07.980Z,99.90
2022-07-28T01:51:36.703Z,99.90
2022-07-28T01:54:04.946Z,99.90
2022-07-28T01:56:33.828Z,99.90
2022-07-28T01:59:06.182Z,99.90
2022-07-28T02:01:36.899Z,99.90
2022-07-28T02:04:06.298Z,99.90
2022-07-28T02:06:34.870Z,99.90
2022-07-28T02:09:04.506Z,99.90
2022-07-28T02:11:43.055Z,99.90
2022-07-28T02:14:15.435Z,99.90
2022-07-28T02:16:47.014Z,99.90
2022-07-28T02:19:14.825Z,99.90
2022-07-28T02:21:43.524Z,99.90
2022-07-28T02:24:13.233Z,99.90
2022-07-28T02:26:47.320Z,99.90
2022-07-28T02:29:40.377Z,99.90
2022-07-28T02:32:24.080Z,99.90
2022-07-28T02:35:17.663Z,99.90
2022-07-28T02:37:53.515Z,99.90
2022-07-28T02:40:23.289Z,99.90
2022-07-28T02:42:51.852Z,99.90
2022-07-28T02:45:22.472Z,99.90
2022-07-28T02:47:53.241Z,99.90
2022-07-28T02:50:24.443Z,99.90
2022-07-28T02:52:52.894Z,99.90
2022-07-28T02:55:20.154Z,99.90
2022-07-28T02:57:51.992Z,99.90
2022-07-28T03:00:22.708Z,99.90
2022-07-28T03:02:50.006Z,99.90
2022-07-28T03:05:17.174Z,99.90
2022-07-28T03:07:50.665Z,99.90
2022-07-28T03:10:32.953Z,99.90
2022-07-28T03:13:02.910Z,99.90
2022-07-28T03:15:30.899Z,99.90
2022-07-28T03:17:58.192Z,99.90
2022-07-28T03:20:25.049Z,99.90
2022-07-28T03:22:51.855Z,99.90
2022-07-28T03:25:32.583Z,99.90
2022-07-28T03:28:00.388Z,99.90
2022-07-28T03:30:32.909Z,99.90
2022-07-28T03:33:01.626Z,99.90
2022-07-28T03:35:31.374Z,99.90
2022-07-28T03:38:10.866Z,99.90
2022-07-28T03:40:39.225Z,99.90
2022-07-28T03:43:08.729Z,99.90
2022-07-28T03:45:36.487Z,99.90
2022-07-28T03:48:08.354Z,99.90
2022-07-28T03:50:35.424Z,99.90
2022-07-28T03:53:05.587Z,99.90
2022-07-28T03:55:32.408Z,99.90
2022-07-28T03:57:59.361Z,99.90
2022-07-28T04:00:26.273Z,99.90
2022-07-28T04:02:53.145Z,99.90
2022-07-28T04:05:20.798Z,99.90
2022-07-28T04:07:48.039Z,99.90
2022-07-28T04:10:17.456Z,99.90
2022-07-28T04:12:49.561Z,99.90
2022-07-28T04:15:17.101Z,99.90
2022-07-28T04:17:44.885Z,99.90
2022-07-28T04:20:12.180Z,99.90
2022-07-28T04:22:39.071Z,99.90
2022-07-28T04:25:06.930Z,99.90
2022-07-28T04:27:36.362Z,99.90
2022-07-28T04:30:08.911Z,99.90
2022-07-28T04:32:38.556Z,99.90
2022-07-28T04:35:06.950Z,99.90
2022-07-28T04:37:33.782Z,99.90
2022-07-28T04:40:00.784Z,99.90
2022-07-28T04:42:27.639Z,99.90
2022-07-28T04:44:54.768Z,99.90
2022-07-28T04:47:21.889Z,99.90
2022-07-28T04:49:48.692Z,99.90
2022-07-28T04:52:15.891Z,99.90
2022-07-28T04:54:42.917Z,99.90
2022-07-28T04:57:12.906Z,99.90
2022-07-28T04:59:41.564Z,99.90
2022-07-28T05:02:08.995Z,99.90
2022-07-28T05:04:35.910Z,99.90
2022-07-28T05:07:07.839Z,99.90
2022-07-28T05:09:39.822Z,99.90
2022-07-28T05:12:06.942Z,99.90
2022-07-28T05:14:33.762Z,99.90
2022-07-28T05:17:00.753Z,99.90
2022-07-28T05:19:27.843Z,99.90
2022-07-28T05:21:54.687Z,99.90
2022-07-28T05:24:21.534Z,99.90
2022-07-28T05:26:48.334Z,99.90
2022-07-28T05:29:15.141Z,99.90
2022-07-28T05:31:42.084Z,99.90
2022-07-28T05:34:08.985Z,99.90
2022-07-28T05:36:36.381Z,99.90
2022-07-28T05:39:03.695Z,99.90
2022-07-28T05:41:30.524Z,99.90
2022-07-28T05:43:58.409Z,99.90
2022-07-28T05:46:25.344Z,99.90
2022-07-28T05:48:52.976Z,99.90
2022-07-28T05:51:20.073Z,99.90
2022-07-28T05:53:46.914Z,99.90
2022-07-28T05:56:13.734Z,99.90
2022-07-28T05:58:40.515Z,99.90
2022-07-28T06:01:07.450Z,99.90
2022-07-28T06:03:38.445Z,99.90
2022-07-28T06:06:15.675Z,99.90
2022-07-28T06:08:43.819Z,99.90
2022-07-28T06:11:11.817Z,99.90
2022-07-28T06:13:40.198Z,99.90
2022-07-28T06:16:13.136Z,99.90
2022-07-28T06:18:40.600Z,99.90
2022-07-28T06:21:07.539Z,99.90
2022-07-28T06:23:34.462Z,99.90
2022-07-28T06:26:01.439Z,99.90
2022-07-28T06:28:28.365Z,99.90
2022-07-28T06:30:55.217Z,99.90
2022-07-28T06:33:22.012Z,99.90
2022-07-28T06:35:51.413Z,99.90
2022-07-28T06:38:20.536Z,99.90
2022-07-28T06:40:48.318Z,99.90
2022-07-28T06:43:15.228Z,99.90
2022-07-28T06:45:42.150Z,99.90
2022-07-28T06:48:09.219Z,99.90
2022-07-28T06:50:39.265Z,99.90
2022-07-28T06:53:06.481Z,99.90
2022-07-28T06:55:35.587Z,99.90
2022-07-28T06:58:04.093Z,99.90
2022-07-28T07:00:31.599Z,99.90
2022-07-28T07:03:00.614Z,99.90
2022-07-28T07:05:29.976Z,99.90
2022-07-28T07:07:56.872Z,99.90
2022-07-28T07:10:24.101Z,99.90
2022-07-28T07:12:50.977Z,99.90
2022-07-28T07:15:17.818Z,99.90
2022-07-28T07:17:44.677Z,99.90
2022-07-28T07:20:13.476Z,99.90
2022-07-28T07:22:47.654Z,99.90
2022-07-28T07:25:19.696Z,99.90
2022-07-28T07:27:46.777Z,99.90
2022-07-28T07:30:14.791Z,99.90
2022-07-28T07:32:42.093Z,99.90
2022-07-28T07:35:09.337Z,99.90
2022-07-28T07:37:36.504Z,99.90
2022-07-28T07:40:05.252Z,99.90
2022-07-28T07:42:32.513Z,99.90
2022-07-28T07:44:59.705Z,99.90
2022-07-28T07:47:26.871Z,99.90
2022-07-28T07:49:53.888Z,99.90
2022-07-28T07:52:20.772Z,99.90
2022-07-28T07:54:47.638Z,99.90
2022-07-28T07:57:14.521Z,99.90
2022-07-28T07:59:41.685Z,99.90
2022-07-28T08:02:09.003Z,99.90
2022-07-28T08:04:37.375Z,99.90
2022-07-28T08:07:06.233Z,99.90
2022-07-28T08:09:38.384Z,99.90
2022-07-28T08:12:05.602Z,99.90
2022-07-28T08:14:32.519Z,99.90
2022-07-28T08:16:59.673Z,99.80
2022-07-28T08:19:26.854Z,99.60
2022-07-28T08:21:55.342Z,99.20
2022-07-28T08:24:27.814Z,99.00
2022-07-28T08:27:00.623Z,98.90
2022-07-28T08:29:28.715Z,99.10
2022-07-28T08:31:55.561Z,99.30
2022-07-28T08:34:31.299Z,98.30
2022-07-28T08:37:02.467Z,98.20
2022-07-28T08:39:30.234Z,98.10
2022-07-28T08:42:08.516Z,97.50
2022-07-28T08:44:46.905Z,96.10
2022-07-28T08:47:15.785Z,95.50
2022-07-28T08:49:43.115Z,95.30
2022-07-28T08:52:12.377Z,95.10
2022-07-28T08:54:46.529Z,95.60
2022-07-28T08:57:28.333Z,95.30
2022-07-28T08:59:55.930Z,95.20
2022-07-28T09:02:26.884Z,94.90
2022-07-28T09:04:55.200Z,94.50
2022-07-28T09:07:23.417Z,94.90
2022-07-28T09:09:50.829Z,94.90
2022-07-28T09:12:27.251Z,93.80
2022-07-28T09:14:54.523Z,94.20
2022-07-28T09:17:21.362Z,94.00
2022-07-28T09:19:48.236Z,94.40
2022-07-28T09:22:15.028Z,94.00
2022-07-28T09:24:44.789Z,93.80
2022-07-28T09:27:14.222Z,93.00
2022-07-28T09:29:46.544Z,92.90
2022-07-28T09:32:15.829Z,93.70
2022-07-28T09:34:47.932Z,93.80
2022-07-28T09:37:27.631Z,93.20
2022-07-28T09:39:59.139Z,93.50
2022-07-28T09:42:44.451Z,93.40
2022-07-28T09:45:26.751Z,93.60
2022-07-28T09:48:13.874Z,93.70
2022-07-28T09:50:42.410Z,93.40
2022-07-28T09:53:27.473Z,93.30
2022-07-28T09:55:58.253Z,93.30
2022-07-28T09:58:26.652Z,93.60
2022-07-28T10:01:15.676Z,92.60
2022-07-28T10:03:48.921Z,93.10
2022-07-28T10:06:16.621Z,93.10
2022-07-28T10:08:47.508Z,92.70
2022-07-28T10:11:20.358Z,92.40
2022-07-28T10:14:03.013Z,91.50
2022-07-28T10:16:35.758Z,91.40
2022-07-28T10:19:04.830Z,91.60
2022-07-28T10:21:34.896Z,91.50
2022-07-28T10:24:09.399Z,92.50
2022-07-28T10:26:44.183Z,92.20
2022-07-28T10:29:18.265Z,92.10
2022-07-28T10:32:06.281Z,91.50
2022-07-28T10:34:54.204Z,91.20
2022-07-28T10:37:25.665Z,91.60
2022-07-28T10:40:07.796Z,91.00
2022-07-28T10:42:38.637Z,90.80
2022-07-28T10:45:05.970Z,91.00
2022-07-28T10:47:35.935Z,90.90
2022-07-28T10:50:04.270Z,90.60
2022-07-28T10:52:46.878Z,91.20
2022-07-28T10:55:31.880Z,91.30
2022-07-28T10:58:27.055Z,91.00
2022-07-28T11:00:58.369Z,90.80
2022-07-28T11:03:47.516Z,91.00
2022-07-28T11:06:46.055Z,90.70
2022-07-28T11:09:16.027Z,91.30
2022-07-28T11:11:46.680Z,91.60
2022-07-28T11:14:26.001Z,91.80
2022-07-28T11:17:10.234Z,90.90
2022-07-28T11:20:06.938Z,91.60
2022-07-28T11:22:33.210Z,90.60
2022-07-28T11:25:18.667Z,90.70
2022-07-28T11:27:51.545Z,90.60
2022-07-28T11:30:28.886Z,90.40
2022-07-28T11:32:56.860Z,88.10
2022-07-28T11:35:25.131Z,89.00
2022-07-28T11:38:01.813Z,88.70
2022-07-28T11:40:33.548Z,90.60
2022-07-28T11:43:37.618Z,88.20
2022-07-28T11:46:10.374Z,88.40
2022-07-28T11:48:44.553Z,89.40
2022-07-28T11:51:12.969Z,87.20
2022-07-28T11:53:48.041Z,87.90
2022-07-28T11:56:36.018Z,87.80
2022-07-28T11:59:07.347Z,89.00
2022-07-28T12:01:38.846Z,88.40
2022-07-28T12:04:15.442Z,88.20
2022-07-28T12:06:43.628Z,86.40
2022-07-28T12:09:23.263Z,86.60
2022-07-28T12:11:54.165Z,85.50
2022-07-28T12:14:22.755Z,86.40
2022-07-28T12:16:53.427Z,83.90
2022-07-28T12:19:21.006Z,83.60
2022-07-28T12:21:55.369Z,84.70
2022-07-28T12:24:45.830Z,83.50
2022-07-28T12:27:15.409Z,82.20
2022-07-28T12:29:43.970Z,83.30
2022-07-28T12:32:15.905Z,83.90
2022-07-28T12:34:44.412Z,83.40
2022-07-28T12:37:14.299Z,82.90
2022-07-28T12:39:43.275Z,84.50
2022-07-28T12:42:12.080Z,82.00
2022-07-28T12:44:42.434Z,85.00
2022-07-28T12:47:12.150Z,83.40
2022-07-28T12:49:41.158Z,85.00
2022-07-28T12:52:17.705Z,84.30
2022-07-28T12:54:53.744Z,84.30
2022-07-28T12:57:50.865Z,84.20
2022-07-28T13:00:24.644Z,85.50
2022-07-28T13:02:56.295Z,85.50
2022-07-28T13:05:53.655Z,86.00
2022-07-28T13:08:21.794Z,85.10
2022-07-28T13:10:51.555Z,84.20
2022-07-28T13:13:20.290Z,84.20
2022-07-28T13:16:13.016Z,83.30
2022-07-28T13:18:48.599Z,82.60
2022-07-28T13:21:16.706Z,84.50
2022-07-28T13:23:44.102Z,82.80
2022-07-28T13:26:10.980Z,83.10
2022-07-28T13:28:39.560Z,83.30
2022-07-28T13:31:06.521Z,82.50
2022-07-28T13:33:33.400Z,79.70
2022-07-28T13:36:00.628Z,79.60
2022-07-28T13:38:27.539Z,81.30
2022-07-28T13:40:54.357Z,78.80
2022-07-28T13:43:21.229Z,77.40
2022-07-28T13:45:48.314Z,76.40
2022-07-28T13:48:15.205Z,78.80
2022-07-28T13:50:42.076Z,78.70
2022-07-28T13:53:09.054Z,75.70
2022-07-28T13:55:37.476Z,75.10
2022-07-28T13:58:08.685Z,74.40
2022-07-28T14:00:35.956Z,73.10
2022-07-28T14:03:03.104Z,72.00
2022-07-28T14:05:35.261Z,72.50
2022-07-28T14:08:02.771Z,71.90
2022-07-28T14:10:29.717Z,71.30
2022-07-28T14:12:56.546Z,71.40
2022-07-28T14:15:23.371Z,70.20
2022-07-28T14:17:50.220Z,69.80
2022-07-28T14:20:17.395Z,69.80
2022-07-28T14:22:46.254Z,69.90
2022-07-28T14:25:20.684Z,68.60
2022-07-28T14:27:48.417Z,65.30
2022-07-28T14:30:15.319Z,66.80
2022-07-28T14:32:42.163Z,68.30
2022-07-28T14:35:09.340Z,68.30
2022-07-28T14:38:11.187Z,67.70
2022-07-28T14:40:23.759Z,68.00
2022-07-28T14:42:50.830Z,66.50
2022-07-28T14:45:17.698Z,67.30
2022-07-28T14:47:45.593Z,66.40
2022-07-28T14:50:13.253Z,65.30
2022-07-28T14:52:40.231Z,65.80
2022-07-28T14:55:07.622Z,64.10
2022-07-28T14:57:51.763Z,63.70
2022-07-28T15:00:22.784Z,65.90
2022-07-28T15:02:51.553Z,65.40
2022-07-28T15:05:19.390Z,65.70
2022-07-28T15:07:49.100Z,66.90
2022-07-28T15:10:16.089Z,65.30
2022-07-28T15:12:42.944Z,65.90
2022-07-28T15:15:10.545Z,65.80
2022-07-28T15:17:37.609Z,64.10
2022-07-28T15:20:07.050Z,63.30
2022-07-28T15:22:34.619Z,64.10
2022-07-28T15:25:01.947Z,63.50
2022-07-28T15:27:33.317Z,63.80
2022-07-28T15:30:03.050Z,61.80
2022-07-28T15:32:31.197Z,62.30
2022-07-28T15:34:58.759Z,62.30
2022-07-28T15:37:26.616Z,61.70
2022-07-28T15:39:53.457Z,62.50
2022-07-28T15:42:21.092Z,61.50
2022-07-28T15:44:49.211Z,61.50
2022-07-28T15:47:16.011Z,59.70
2022-07-28T15:49:42.915Z,60.60
2022-07-28T15:52:10.081Z,62.50
2022-07-28T15:54:36.914Z,63.30
2022-07-28T15:57:03.902Z,64.30
2022-07-28T15:59:49.212Z,64.40
2022-07-28T16:02:18.031Z,65.10
2022-07-28T16:04:52.214Z,65.80
2022-07-28T16:07:24.508Z,65.30
2022-07-28T16:09:54.606Z,65.50
2022-07-28T16:12:25.489Z,65.40
2022-07-28T16:14:53.983Z,66.40
2022-07-28T16:17:22.633Z,67.70
2022-07-28T16:19:51.209Z,68.20
2022-07-28T16:22:19.511Z,68.90
2022-07-28T16:24:46.403Z,69.60
2022-07-28T16:27:13.982Z,69.30
2022-07-28T16:29:40.794Z,68.50
2022-07-28T16:32:07.687Z,68.70
2022-07-28T16:34:34.525Z,68.90
2022-07-28T16:37:01.718Z,69.40
2022-07-28T16:39:33.562Z,70.10
2022-07-28T16:42:00.430Z,70.30
2022-07-28T16:44:28.646Z,71.20
2022-07-28T16:46:55.529Z,71.40
2022-07-28T16:49:22.672Z,71.90
2022-07-28T16:51:49.703Z,72.40
2022-07-28T16:54:17.121Z,72.40
2022-07-28T16:56:45.107Z,73.10
2022-07-28T16:59:12.042Z,73.30
2022-07-28T17:01:43.524Z,72.90
2022-07-28T17:04:13.139Z,72.60
2022-07-28T17:06:40.247Z,72.90
2022-07-28T17:09:07.140Z,73.30
2022-07-28T17:11:34.004Z,73.60
2022-07-28T17:14:01.200Z,73.30
2022-07-28T17:16:28.164Z,73.50
2022-07-28T17:18:55.095Z,73.90
2022-07-28T17:21:21.990Z,74.40
2022-07-28T17:23:48.851Z,74.10
2022-07-28T17:27:30.754Z,74.10
2022-07-28T17:29:02.654Z,74.50
2022-07-28T17:31:31.540Z,74.90
2022-07-28T17:34:00.568Z,75.70
2022-07-28T17:36:27.444Z,75.50
2022-07-28T17:38:54.316Z,75.50
2022-07-28T17:41:21.170Z,76.40
2022-07-28T17:43:47.992Z,76.80
2022-07-28T17:46:15.042Z,76.00
2022-07-28T17:48:42.333Z,76.70
2022-07-28T17:51:09.264Z,76.80
2022-07-28T17:53:39.209Z,77.30
2022-07-28T17:56:08.510Z,77.40
2022-07-28T17:58:36.208Z,77.80
2022-07-28T18:01:09.333Z,77.80
2022-07-28T18:03:59.076Z,78.40
2022-07-28T18:06:36.216Z,78.70
2022-07-28T18:09:07.451Z,78.10
2022-07-28T18:11:38.598Z,78.40
2022-07-28T18:14:24.447Z,78.50
2022-07-28T18:16:51.323Z,79.40
2022-07-28T18:19:18.164Z,79.40
2022-07-28T18:21:45.054Z,80.00
2022-07-28T18:24:11.999Z,79.80
2022-07-28T18:26:38.896Z,80.00
2022-07-28T18:29:05.796Z,80.70
2022-07-28T18:31:32.789Z,80.50
2022-07-28T18:33:59.598Z,81.10
2022-07-28T18:36:26.543Z,81.40
2022-07-28T18:38:53.404Z,81.50
2022-07-28T18:41:20.255Z,81.50
2022-07-28T18:43:47.098Z,81.60
2022-07-28T18:46:14.193Z,82.10
2022-07-28T18:48:41.217Z,82.30
2022-07-28T18:51:08.051Z,82.80
2022-07-28T18:53:36.160Z,83.30
2022-07-28T18:56:03.019Z,83.50
2022-07-28T18:58:29.846Z,83.60
2022-07-28T19:00:56.733Z,84.60
2022-07-28T19:03:23.532Z,84.40
2022-07-28T19:05:50.846Z,84.10
2022-07-28T19:08:17.691Z,84.60
2022-07-28T19:10:44.649Z,85.10
2022-07-28T19:13:12.908Z,85.10
2022-07-28T19:15:41.404Z,85.00
2022-07-28T19:18:11.007Z,85.40
2022-07-28T19:20:44.591Z,85.40
2022-07-28T19:23:11.469Z,86.30
2022-07-28T19:25:41.607Z,85.80
2022-07-28T19:28:08.594Z,86.00
2022-07-28T19:30:36.017Z,86.20
2022-07-28T19:33:03.904Z,86.50
2022-07-28T19:35:30.838Z,86.50
2022-07-28T19:37:59.960Z,86.80
2022-07-28T19:40:29.638Z,87.20
2022-07-28T19:42:56.794Z,87.60
2022-07-28T19:45:24.070Z,87.60
2022-07-28T19:47:51.023Z,87.40
2022-07-28T19:50:18.361Z,88.00
2022-07-28T19:52:45.399Z,87.90
2022-07-28T19:55:13.906Z,87.80
2022-07-28T19:57:47.782Z,88.20
2022-07-28T20:00:17.561Z,88.30
2022-07-28T20:02:45.924Z,88.70
2022-07-28T20:05:12.987Z,88.80
2022-07-28T20:07:40.129Z,89.00
2022-07-28T20:10:07.229Z,89.10
2022-07-28T20:12:36.647Z,89.50
2022-07-28T20:15:07.934Z,89.70
2022-07-28T20:17:38.602Z,89.90
2022-07-28T20:20:12.837Z,89.80
2022-07-28T20:22:41.313Z,90.00
2022-07-28T20:25:10.018Z,90.10
2022-07-28T20:27:40.275Z,90.40
2022-07-28T20:30:11.868Z,90.30
2022-07-28T20:32:39.260Z,90.50
2022-07-28T20:35:08.910Z,90.60
2022-07-28T20:37:37.599Z,90.60
2022-07-28T20:40:08.211Z,90.70
2022-07-28T20:42:35.912Z,90.80
2022-07-28T20:45:03.861Z,90.90
2022-07-28T20:47:34.360Z,91.00
2022-07-28T20:50:01.889Z,91.30
2022-07-28T20:52:29.034Z,91.30
2022-07-28T20:54:55.862Z,91.60
2022-07-28T20:57:23.508Z,91.70
2022-07-28T20:59:53.644Z,91.80
2022-07-28T21:02:21.564Z,91.80
2022-07-28T21:04:50.575Z,92.00
2022-07-28T21:08:00.641Z,92.10
2022-07-28T21:10:07.336Z,92.10
2022-07-28T21:12:34.998Z,92.40
2022-07-28T21:15:02.454Z,92.60
2022-07-28T21:17:29.285Z,92.60
2022-07-28T21:19:56.172Z,92.80
2022-07-28T21:22:23.396Z,92.80
2022-07-28T21:24:55.292Z,92.90
2022-07-28T21:27:23.228Z,93.00
2022-07-28T21:32:17.563Z,93.40
2022-07-28T21:34:44.413Z,93.50
2022-07-28T21:37:12.746Z,93.40
2022-07-28T21:39:39.929Z,93.70
2022-07-28T21:42:08.421Z,93.70
2022-07-28T21:44:35.620Z,93.80
2022-07-28T21:47:02.457Z,93.80
2022-07-28T21:49:31.108Z,93.90
2022-07-28T21:51:58.217Z,93.90
2022-07-28T21:54:25.161Z,94.10
2022-07-28T21:56:52.023Z,94.30
2022-07-28T21:59:18.824Z,94.20
2022-07-28T22:01:45.772Z,94.30
2022-07-28T22:04:13.057Z,94.30
2022-07-28T22:06:40.273Z,94.30
2022-07-28T22:09:07.104Z,94.40
2022-07-28T22:11:33.909Z,94.70
2022-07-28T22:14:01.429Z,94.80
2022-07-28T22:16:28.424Z,95.00
2022-07-28T22:18:55.318Z,95.20
2022-07-28T22:21:22.139Z,95.40
2022-07-28T22:23:52.645Z,95.60
2022-07-28T22:26:19.741Z,95.60
2022-07-28T22:28:46.583Z,95.80
2022-07-28T22:31:13.606Z,95.90
2022-07-28T22:33:40.792Z,95.70
2022-07-28T22:36:08.957Z,95.90
2022-07-28T22:38:36.447Z,95.90
2022-07-28T22:41:03.590Z,96.10
2022-07-28T22:43:33.296Z,96.20
2022-07-28T22:46:00.364Z,96.20
2022-07-28T22:48:27.424Z,96.50
2022-07-28T22:50:54.297Z,96.80
2022-07-28T22:53:21.087Z,96.70
2022-07-28T22:58:32.141Z,97.20
2022-07-28T23:00:59.026Z,97.20
2022-07-28T23:03:29.103Z,97.00
2022-07-28T23:06:02.565Z,97.10
2022-07-28T23:08:29.498Z,97.40
2022-07-28T23:10:56.879Z,97.40
2022-07-28T23:13:23.773Z,97.70
2022-07-28T23:15:50.649Z,97.40
2022-07-28T23:18:17.651Z,97.60
2022-07-28T23:20:45.040Z,97.50
2022-07-28T23:23:12.467Z,97.60
2022-07-28T23:25:42.766Z,97.80
2022-07-28T23:28:10.668Z,97.90
2022-07-28T23:30:38.151Z,97.90
2022-07-28T23:33:05.453Z,98.20
2022-07-28T23:35:32.529Z,98.10
2022-07-28T23:37:59.448Z,98.10
2022-07-28T23:40:26.416Z,98.10
2022-07-28T23:42:53.366Z,98.20
2022-07-28T23:45:20.200Z,98.40
2022-07-28T23:47:47.065Z,98.30
2022-07-28T23:50:13.989Z,98.40
2022-07-28T23:52:40.820Z,98.50
2022-07-28T23:55:08.112Z,98.50
2022-07-28T23:57:35.044Z,98.40
